Port Clinton, PA (19549)

6:25 AM EST on February 12, 2016 (GMT -0500)
Tilden | | Change Station
CLOSE
Current Station
Personal Weather Station
Location: Hamburg, PA
Elevation: 715 ft
Nearby Weather Stations

Elev 715 ft 40.56 °N, 76.04 °W | Updated 2 minutes ago

Clear
Clear
6.3 °F
Feels Like 6 °F
N
0.0
Wind Variable Wind from NW

Today
High -- | Low -- °F
--% Chance of Precip.
Yesterday
High -- | Low -- °F
Precip. -- in
Pressure 30.30 in
Visibility 10.0 miles
Clouds Clear
Windchill 6 °F
Dew Point 1 °F
Humidity 77%
Rainfall 0.00 in
Snow Depth Not available.
7:02 AM 5:34 PM
Waxing Crescent, 19% visible
METAR KRDG 121054Z 00000KT 10SM CLR M13/M18 A3026 RMK AO2 SLP258 T11281183
Pressure 30.30 in
Visibility 10.0 miles
Clouds Clear
Windchill 6 °F
Dew Point 1 °F
Humidity 77%
Rainfall 0.00 in
Snow Depth Not available.
7:02 AM 5:34 PM
Waxing Crescent, 19% visible
METAR KRDG 121054Z 00000KT 10SM CLR M13/M18 A3026 RMK AO2 SLP258 T11281183

10-Day Weather Forecast

Almanac

Astronomy

Feb. 12, 2016 Rise Set
Actual Time
Civil Twilight
Nautical Twilight
Astronomical Twilight
Moon
Length of Visible Light
Length of Day
Tomorrow will be .
, % of the Moon is Illuminated

Today's Extremes

State Highs State Lows

Community

WunderPhotos

Upload Photos

1,892,290 photos uploaded!

WunderBlog® & News

Nearby

Air Quality

  Air Quality AQ Index Pollutant
Not available.

Snow Depth

Station Depth Elevation

Earthquake Activity

City Distance Mag. Time & Date
Minimum magnitude displayed is 2.5.

Coastal Water Temperatures

Place Temperature

Stations

Nearby Weather Stations

Station Location Temp. Windchill Dew Point Humidity Wind Precip. Elev Updated Type
                   

Watches & Warnings

There are currently no watches in effect.